| time (UTC) | temp F | wind direction | speed MPH | gust MPH | rain 1hr in | rain 24hr in | rain mn in | humidity % | barometer mb |
| 20260502220031 | 74 | 77 | 5.0 | 10.0 | 0.00 | 0.05 | 0.00 | 49 | 1021.6 |
| 20260502215531 | 74 | 66 | 4.0 | 10.0 | 0.00 | 0.06 | 0.00 | 50 | 1021.5 |
| 20260502215030 | 75 | 9 | 4.0 | 10.0 | 0.00 | 0.07 | 0.00 | 49 | 1021.4 |
| 20260502214531 | 74 | 334 | 4.0 | 10.0 | 0.00 | 0.08 | 0.00 | 49 | 1021.5 |
| 20260502214310 | 74 | 100 | 4.0 | 9.0 | 0.00 | 0.10 | 0.00 | 49 | 1021.6 |
| 20260502213531 | 74 | 39 | 4.0 | 9.0 | 0.00 | 0.12 | 0.00 | 46 | 1021.6 |
| 20260502213030 | 75 | 10 | 5.0 | 11.0 | 0.00 | 0.14 | 0.00 | 46 | 1021.6 |
| 20260502212531 | 75 | 12 | 5.0 | 11.0 | 0.00 | 0.15 | 0.00 | 47 | 1021.7 |
| 20260502212030 | 75 | 10 | 4.0 | 9.0 | 0.00 | 0.15 | 0.00 | 46 | 1021.8 |
| 20260502211531 | 74 | 11 | 3.0 | 10.0 | 0.00 | 0.15 | 0.00 | 48 | 1021.9 |
| 20260502211030 | 73 | 9 | 2.0 | 10.0 | 0.00 | 0.15 | 0.00 | 49 | 1022.0 |
| 20260502210529 | 73 | 105 | 4.0 | 10.0 | 0.00 | 0.15 | 0.00 | 47 | 1022.0 |
| 20260502210029 | 74 | 93 | 5.0 | 10.0 | 0.00 | 0.15 | 0.00 | 47 | 1022.1 |
| 20260502205529 | 74 | 114 | 5.0 | 9.0 | 0.00 | 0.15 | 0.00 | 46 | 1022.2 |
| 20260502205030 | 75 | 11 | 3.0 | 8.0 | 0.00 | 0.15 | 0.00 | 47 | 1022.3 |
| 20260502205015 | 74 | 0 | 4.0 | 11.0 | 0.00 | 0.15 | 0.00 | 47 | 1022.3 |
| 20260502204029 | 74 | 95 | 4.0 | 11.0 | 0.00 | 0.15 | 0.00 | 49 | 1022.4 |
| 20260502203530 | 73 | 71 | 4.0 | 9.0 | 0.00 | 0.15 | 0.00 | 46 | 1022.4 |
| 20260502203031 | 74 | 26 | 4.0 | 9.0 | 0.00 | 0.15 | 0.00 | 48 | 1022.4 |
| 20260502202529 | 74 | 33 | 4.0 | 9.0 | 0.00 | 0.15 | 0.00 | 50 | 1022.4 |
| 20260502202030 | 74 | 120 | 4.0 | 10.0 | 0.00 | 0.15 | 0.00 | 46 | 1022.4 |
| 20260502201530 | 74 | 82 | 4.0 | 12.0 | 0.00 | 0.15 | 0.00 | 47 | 1022.5 |
| 20260502201027 | 74 | 11 | 5.0 | 12.0 | 0.00 | 0.15 | 0.00 | 48 | 1022.6 |
| 20260502200528 | 73 | 18 | 5.0 | 12.0 | 0.00 | 0.15 | 0.00 | 49 | 1022.6 |
| 20260502200028 | 73 | 47 | 6.0 | 15.0 | 0.00 | 0.16 | 0.00 | 47 | 1022.6 |
| 20260502195527 | 73 | 74 | 5.0 | 15.0 | 0.00 | 0.16 | 0.00 | 48 | 1022.7 |
| 20260502195027 | 73 | 60 | 6.0 | 15.0 | 0.00 | 0.17 | 0.00 | 47 | 1022.7 |
| 20260502194527 | 73 | 22 | 6.0 | 15.0 | 0.00 | 0.17 | 0.00 | 48 | 1022.8 |
| 20260502194027 | 73 | 40 | 6.0 | 16.0 | 0.00 | 0.17 | 0.00 | 50 | 1022.7 |
| 20260502194011 | 73 | 36 | 7.0 | 16.0 | 0.00 | 0.18 | 0.00 | 52 | 1022.8 |
| 20260502194003 | 73 | 78 | 6.0 | 16.0 | 0.00 | 0.17 | 0.00 | 48 | 1022.8 |
| 20260502192528 | 73 | 0 | 6.0 | 16.0 | 0.00 | 0.18 | 0.00 | 50 | 1022.8 |
| 20260502192025 | 72 | 323 | 4.0 | 10.0 | 0.00 | 0.20 | 0.00 | 49 | 1022.7 |
| 20260502191525 | 72 | 71 | 4.0 | 10.0 | 0.00 | 0.21 | 0.00 | 52 | 1022.8 |
| 20260502191025 | 72 | 9 | 5.0 | 10.0 | 0.00 | 0.21 | 0.00 | 53 | 1022.7 |
| 20260502190525 | 72 | 32 | 4.0 | 10.0 | 0.00 | 0.21 | 0.00 | 51 | 1022.8 |
| 20260502190025 | 72 | 57 | 3.0 | 10.0 | 0.00 | 0.21 | 0.00 | 54 | 1022.8 |
| 20260502185800 | 72 | 22 | 5.0 | 15.0 | 0.00 | 0.21 | 0.00 | 55 | 1022.7 |
| 20260502185025 | 72 | 33 | 6.0 | 15.0 | 0.00 | 0.21 | 0.00 | 56 | 1022.8 |
| 20260502184532 | 71 | 0 | 5.0 | 10.0 | 0.00 | 0.21 | 0.00 | 57 | 1022.9 |
| 20260502184028 | 71 | 16 | 5.0 | 10.0 | 0.00 | 0.21 | 0.00 | 59 | 1023.0 |
| 20260502183525 | 71 | 51 | 4.0 | 10.0 | 0.00 | 0.21 | 0.00 | 61 | 1023.1 |
| 20260502183023 | 71 | 296 | 4.0 | 10.0 | 0.00 | 0.22 | 0.00 | 58 | 1023.0 |
| 20260502182522 | 70 | 348 | 4.0 | 10.0 | 0.00 | 0.25 | 0.00 | 61 | 1023.1 |
| 20260502182022 | 71 | 57 | 4.0 | 10.0 | 0.00 | 0.27 | 0.00 | 55 | 1023.4 |
| 20260502181522 | 71 | 304 | 4.0 | 10.0 | 0.00 | 0.28 | 0.00 | 59 | 1023.5 |
| 20260502181022 | 71 | 9 | 4.0 | 10.0 | 0.00 | 0.30 | 0.00 | 61 | 1023.5 |
| 20260502180522 | 70 | 10 | 4.0 | 11.0 | 0.00 | 0.36 | 0.00 | 59 | 1023.7 |
| 20260502164004 | 67 | 355 | 4.0 | 10.0 | 0.00 | 0.42 | 0.00 | 66 | 1024.5 |
| 20260502163503 | 67 | 0 | 5.0 | 10.0 | 0.00 | 0.42 | 0.00 | 67 | 1024.5 |
| 20260502163004 | 67 | 316 | 4.0 | 11.0 | 0.00 | 0.42 | 0.00 | 67 | 1024.5 |
| 20260502162502 | 67 | 303 | 4.0 | 11.0 | 0.00 | 0.42 | 0.00 | 66 | 1024.6 |
| 20260502161956 | 66 | 0 | 4.0 | 10.0 | 0.00 | 0.42 | 0.00 | 68 | 1024.6 |
| 20260502161718 | 66 | 0 | 4.0 | 10.0 | 0.00 | 0.42 | 0.00 | 68 | 1024.6 |
| 20260502161227 | 65 | 18 | 4.0 | 10.0 | 0.00 | 0.42 | 0.00 | 67 | 1024.7 |
| 20260502160711 | 65 | 329 | 4.0 | 10.0 | 0.00 | 0.43 | 0.00 | 70 | 1024.7 |
| 20260502151951 | 63 | 34 | 3.0 | 8.0 | 0.00 | 0.55 | 0.00 | 72 | 1024.6 |
| 20260502151450 | 63 | 0 | 3.0 | 8.0 | 0.00 | 0.56 | 0.00 | 72 | 1024.6 |
| 20260502150949 | 62 | 342 | 3.0 | 7.0 | 0.00 | 0.57 | 0.00 | 73 | 1024.5 |
| 20260502150449 | 62 | 351 | 3.0 | 7.0 | 0.00 | 0.59 | 0.00 | 72 | 1024.6 |
| 20260502130411 | 51 | 307 | 2.0 | 5.0 | 0.00 | 0.91 | 0.00 | 98 | 1023.4 |
| 20260502123336 | 47 | 303 | 1.0 | 3.0 | 0.00 | 0.92 | 0.00 | 97 | 1023.0 |
| 20260502122837 | 47 | 303 | 1.0 | 3.0 | 0.00 | 0.92 | 0.00 | 97 | 1022.8 |
| 20260502122600 | 47 | 304 | 1.0 | 3.0 | 0.00 | 0.92 | 0.00 | 97 | 1022.7 |
| 20260502121834 | 46 | 303 | 1.0 | 2.0 | 0.00 | 0.92 | 0.00 | 97 | 1022.7 |
| 20260502121334 | 46 | 304 | 1.0 | 3.0 | 0.00 | 0.92 | 0.00 | 97 | 1022.6 |
| 20260502120835 | 46 | 302 | 1.0 | 3.0 | 0.00 | 0.92 | 0.00 | 97 | 1022.5 |
| 20260502120332 | 46 | 303 | 1.0 | 3.0 | 0.00 | 0.92 | 0.00 | 97 | 1022.4 |
| 20260502115833 | 46 | 304 | 1.0 | 3.0 | 0.00 | 0.92 | 0.00 | 97 | 1022.3 |
| 20260502115332 | 46 | 304 | 1.0 | 3.0 | 0.00 | 0.92 | 0.00 | 97 | 1022.2 |
| 20260502115308 | 46 | 305 | 1.0 | 3.0 | 0.00 | 0.92 | 0.00 | 96 | 1022.0 |
| 20260502115033 | 46 | 305 | 1.0 | 3.0 | 0.00 | 0.92 | 0.00 | 96 | 1022.0 |
| 20260502113833 | 46 | 304 | 1.0 | 3.0 | 0.00 | 0.92 | 0.00 | 96 | 1022.0 |
| 20260502113332 | 47 | 304 | 1.0 | 4.0 | 0.00 | 0.92 | 0.00 | 96 | 1021.9 |
| 20260502112833 | 47 | 304 | 1.0 | 4.0 | 0.00 | 0.92 | 0.00 | 96 | 1021.9 |
| 20260502112556 | 47 | 304 | 2.0 | 4.0 | 0.00 | 0.93 | 0.00 | 97 | 1021.8 |
| 20260502111830 | 47 | 304 | 2.0 | 4.0 | 0.00 | 0.96 | 0.00 | 97 | 1021.8 |
| 20260502111331 | 47 | 302 | 2.0 | 4.0 | 0.00 | 0.99 | 0.00 | 97 | 1021.8 |
| 20260502110830 | 47 | 302 | 2.0 | 3.0 | 0.00 | 1.02 | 0.00 | 96 | 1021.7 |
| 20260502110330 | 47 | 313 | 1.0 | 3.0 | 0.00 | 1.04 | 0.00 | 97 | 1021.7 |
| 20260502105830 | 47 | 318 | 1.0 | 3.0 | 0.00 | 1.05 | 0.00 | 97 | 1021.6 |
| 20260502105331 | 47 | 319 | 1.0 | 3.0 | 0.00 | 1.06 | 0.00 | 97 | 1021.4 |
| 20260502104831 | 47 | 0 | 1.0 | 3.0 | 0.00 | 1.07 | 0.00 | 97 | 1021.3 |
| 20260502104331 | 47 | 320 | 1.0 | 2.0 | 0.00 | 1.08 | 0.00 | 97 | 1021.2 |
| 20260502103830 | 47 | 0 | 1.0 | 3.0 | 0.00 | 1.09 | 0.00 | 97 | 1021.0 |
| 20260502103331 | 47 | 320 | 1.0 | 3.0 | 0.00 | 1.10 | 0.00 | 97 | 1020.8 |
| 20260502102830 | 47 | 323 | 1.0 | 3.0 | 0.00 | 1.11 | 0.00 | 97 | 1020.8 |
| 20260502102331 | 47 | 323 | 2.0 | 3.0 | 0.00 | 1.12 | 0.00 | 97 | 1020.7 |
| 20260502101830 | 47 | 312 | 2.0 | 4.0 | 0.00 | 1.12 | 0.00 | 96 | 1020.7 |
| 20260502101330 | 47 | 329 | 2.0 | 4.0 | 0.00 | 1.12 | 0.00 | 96 | 1020.6 |
| 20260502100830 | 47 | 12 | 2.0 | 4.0 | 0.00 | 1.12 | 0.00 | 96 | 1020.7 |
| 20260502100812 | 47 | 0 | 2.0 | 4.0 | 0.00 | 1.13 | 0.00 | 96 | 1020.6 |
| 20260502100319 | 47 | 0 | 2.0 | 4.0 | 0.00 | 1.13 | 0.00 | 96 | 1020.8 |
| 20260502091330 | 48 | 340 | 2.0 | 5.0 | 0.00 | 1.14 | 0.00 | 97 | 1020.4 |
| 20260502090830 | 48 | 346 | 2.0 | 4.0 | 0.00 | 1.14 | 0.00 | 96 | 1020.4 |
| 20260502090331 | 48 | 342 | 1.0 | 4.0 | 0.00 | 1.14 | 0.00 | 96 | 1020.4 |
| 20260502071302 | 49 | 24 | 2.0 | 5.0 | 0.00 | 1.19 | 0.00 | 96 | 1020.3 |
| 20260502070755 | 49 | 0 | 2.0 | 5.0 | 0.00 | 1.19 | 0.00 | 96 | 1020.2 |
| 20260502070256 | 49 | 341 | 2.0 | 5.0 | 0.00 | 1.19 | 0.00 | 96 | 1020.2 |
| 20260502065754 | 49 | 10 | 2.0 | 5.0 | 0.00 | 1.19 | 0.00 | 96 | 1020.3 |
| 20260502065251 | 49 | 17 | 2.0 | 5.0 | 0.00 | 1.19 | 0.00 | 96 | 1020.3 |
| 20260502064750 | 49 | 341 | 2.0 | 5.0 | 0.00 | 1.19 | 0.00 | 96 | 1020.3 |
| 20260502064248 | 49 | 339 | 2.0 | 5.0 | 0.00 | 1.19 | 0.00 | 96 | 1020.3 |
| 20260502063746 | 49 | 346 | 2.0 | 5.0 | 0.00 | 1.19 | 0.00 | 96 | 1020.3 |
| 20260502063509 | 49 | 0 | 1.0 | 4.0 | 0.00 | 1.19 | 0.00 | 96 | 1020.2 |
| 20260502063014 | 50 | 334 | 1.0 | 3.0 | 0.00 | 1.19 | 0.00 | 96 | 1020.2 |
| 20260502062244 | 50 | 331 | 1.0 | 3.0 | 0.00 | 1.20 | 0.00 | 96 | 1020.2 |
| 20260502061743 | 50 | 332 | 1.0 | 3.0 | 0.00 | 1.20 | 0.00 | 96 | 1020.2 |
| 20260502061244 | 50 | 330 | 1.0 | 3.0 | 0.00 | 1.20 | 0.00 | 96 | 1020.2 |
| 20260502060741 | 50 | 355 | 1.0 | 3.0 | 0.00 | 1.20 | 0.00 | 96 | 1020.1 |
| 20260502060240 | 50 | 355 | 1.0 | 3.0 | 0.00 | 1.20 | 0.00 | 96 | 1020.0 |
| 20260502060001 | 50 | 10 | 0.0 | 3.0 | 0.00 | 1.20 | 0.00 | 96 | 1020.0 |
| 20260502055236 | 51 | 9 | 1.0 | 4.0 | 0.00 | 1.20 | 0.00 | 96 | 1020.1 |
| 20260502054735 | 51 | 9 | 2.0 | 5.0 | 0.00 | 1.20 | 0.00 | 96 | 1020.2 |
| 20260502054233 | 51 | 333 | 3.0 | 5.0 | 0.00 | 1.20 | 0.00 | 96 | 1020.3 |
| 20260502053734 | 51 | 340 | 3.0 | 7.0 | 0.00 | 1.20 | 0.00 | 96 | 1020.3 |
| 20260502053231 | 51 | 325 | 3.0 | 7.0 | 0.00 | 1.20 | 0.00 | 96 | 1020.3 |
| 20260502052729 | 51 | 350 | 2.0 | 5.0 | 0.00 | 1.20 | 0.00 | 96 | 1020.3 |
| 20260502052228 | 51 | 336 | 1.0 | 5.0 | 0.00 | 1.20 | 0.00 | 96 | 1020.3 |
| 20260502051726 | 51 | 348 | 1.0 | 5.0 | 0.00 | 1.20 | 0.00 | 96 | 1020.2 |
| 20260502051224 | 51 | 339 | 1.0 | 3.0 | 0.00 | 1.20 | 0.00 | 96 | 1020.1 |
| 20260502050953 | 51 | 0 | 1.0 | 3.0 | 0.00 | 1.20 | 0.00 | 96 | 1020.1 |
| 20260502050224 | 51 | 338 | 1.0 | 3.0 | 0.00 | 1.20 | 0.00 | 96 | 1020.0 |
| 20260502045723 | 51 | 335 | 1.0 | 3.0 | 0.00 | 1.21 | 1.20 | 96 | 1019.9 |
| 20260502045453 | 52 | 0 | 1.0 | 2.0 | 0.00 | 1.21 | 1.20 | 95 | 1019.9 |
| 20260502044723 | 52 | 337 | 1.0 | 2.0 | 0.00 | 1.21 | 1.20 | 95 | 1019.9 |
| 20260502044221 | 52 | 335 | 1.0 | 2.0 | 0.00 | 1.22 | 1.20 | 95 | 1019.7 |
| 20260502043721 | 52 | 335 | 1.0 | 3.0 | 0.00 | 1.22 | 1.20 | 95 | 1019.7 |
| 20260502043221 | 52 | 336 | 1.0 | 3.0 | 0.00 | 1.22 | 1.20 | 95 | 1019.9 |
| 20260502042719 | 53 | 0 | 1.0 | 4.0 | 0.00 | 1.22 | 1.20 | 95 | 1019.9 |
| 20260502042219 | 53 | 338 | 2.0 | 4.0 | 0.00 | 1.22 | 1.20 | 95 | 1019.9 |
| 20260502041719 | 53 | 333 | 2.0 | 4.0 | 0.00 | 1.22 | 1.20 | 95 | 1020.0 |
| 20260502041219 | 53 | 333 | 1.0 | 3.0 | 0.00 | 1.22 | 1.20 | 95 | 1019.7 |
| 20260502040719 | 53 | 327 | 1.0 | 3.0 | 0.00 | 1.22 | 1.20 | 95 | 1019.9 |
| 20260502040220 | 53 | 326 | 1.0 | 3.0 | 0.00 | 1.22 | 1.20 | 95 | 1019.7 |
| 20260502035718 | 53 | 351 | 2.0 | 6.0 | 0.00 | 1.22 | 1.20 | 95 | 1019.7 |
| 20260502035217 | 53 | 15 | 2.0 | 6.0 | 0.00 | 1.22 | 1.20 | 95 | 1019.7 |
| 20260502034718 | 54 | 22 | 2.0 | 5.0 | 0.00 | 1.22 | 1.20 | 95 | 1019.7 |
| 20260502034440 | 54 | 348 | 2.0 | 5.0 | 0.00 | 1.22 | 1.20 | 95 | 1019.9 |
| 20260502033717 | 54 | 334 | 2.0 | 5.0 | 0.00 | 1.22 | 1.20 | 95 | 1020.0 |
| 20260502033217 | 54 | 9 | 2.0 | 5.0 | 0.00 | 1.22 | 1.20 | 95 | 1019.9 |
| 20260502032717 | 54 | 351 | 3.0 | 9.0 | 0.00 | 1.23 | 1.20 | 95 | 1019.9 |
| 20260502032213 | 54 | 340 | 2.0 | 9.0 | 0.00 | 1.25 | 1.20 | 95 | 1019.9 |
| 20260502031712 | 54 | 340 | 3.0 | 8.0 | 0.00 | 1.26 | 1.20 | 95 | 1019.9 |
| 20260502031436 | 54 | 0 | 3.0 | 8.0 | 0.00 | 1.29 | 1.20 | 95 | 1019.9 |
| 20260502030712 | 54 | 347 | 3.0 | 6.0 | 0.00 | 1.30 | 1.20 | 95 | 1019.9 |
| 20260502030212 | 54 | 343 | 2.0 | 4.0 | 0.00 | 1.32 | 1.20 | 95 | 1019.6 |
| 20260502025713 | 54 | 338 | 2.0 | 5.0 | 0.00 | 1.34 | 1.20 | 95 | 1019.6 |
| 20260502025213 | 54 | 338 | 2.0 | 6.0 | 0.00 | 1.35 | 1.20 | 95 | 1019.6 |
| 20260502024713 | 54 | 351 | 2.0 | 6.0 | 0.00 | 1.35 | 1.20 | 95 | 1019.5 |
| 20260502024213 | 54 | 13 | 2.0 | 7.0 | 0.00 | 1.36 | 1.20 | 95 | 1019.4 |
| 20260502023709 | 54 | 22 | 3.0 | 7.0 | 0.00 | 1.36 | 1.20 | 94 | 1019.5 |
| 20260502023207 | 54 | 17 | 3.0 | 7.0 | 0.00 | 1.36 | 1.20 | 94 | 1019.4 |
| 20260502022707 | 54 | 33 | 3.0 | 8.0 | 0.00 | 1.36 | 1.20 | 94 | 1019.3 |
| 20260502022204 | 54 | 33 | 3.0 | 11.0 | 0.00 | 1.36 | 1.20 | 94 | 1019.2 |
| 20260502021704 | 54 | 27 | 4.0 | 11.0 | 0.00 | 1.36 | 1.20 | 95 | 1019.2 |
| 20260502021204 | 54 | 17 | 4.0 | 11.0 | 0.00 | 1.36 | 1.20 | 95 | 1019.1 |
| 20260502020703 | 54 | 26 | 4.0 | 11.0 | 0.00 | 1.36 | 1.20 | 96 | 1019.0 |
| 20260502020435 | 53 | 337 | 3.0 | 9.0 | 0.00 | 1.36 | 1.20 | 96 | 1018.8 |
| 20260502015702 | 54 | 9 | 2.0 | 5.0 | 0.00 | 1.36 | 1.20 | 96 | 1018.7 |
| 20260502015203 | 54 | 342 | 2.0 | 5.0 | 0.00 | 1.36 | 1.20 | 96 | 1018.4 |
| 20260502015156 | 54 | 15 | 2.0 | 6.0 | 0.00 | 1.36 | 1.20 | 96 | 1018.2 |
| 20260502014202 | 54 | 9 | 2.0 | 6.0 | 0.00 | 1.36 | 1.20 | 96 | 1018.2 |
| 20260502013703 | 54 | 11 | 3.0 | 7.0 | 0.00 | 1.36 | 1.20 | 96 | 1018.1 |
| 20260502013202 | 54 | 22 | 3.0 | 7.0 | 0.00 | 1.36 | 1.20 | 96 | 1018.2 |
| 20260502012703 | 54 | 12 | 3.0 | 6.0 | 0.00 | 1.36 | 1.20 | 96 | 1018.2 |
| 20260502012429 | 54 | 12 | 3.0 | 7.0 | 0.00 | 1.36 | 1.20 | 96 | 1018.1 |
| 20260502011928 | 54 | 27 | 3.0 | 7.0 | 0.00 | 1.36 | 1.20 | 96 | 1018.0 |
| 20260502011649 | 54 | 40 | 4.0 | 10.0 | 0.00 | 1.36 | 1.20 | 96 | 1017.9 |
| 20260502010703 | 54 | 31 | 4.0 | 10.0 | 0.00 | 1.36 | 1.20 | 96 | 1017.7 |
| 20260502010202 | 54 | 69 | 3.0 | 8.0 | 0.00 | 1.36 | 1.20 | 96 | 1017.6 |
| 20260502005703 | 54 | 25 | 4.0 | 12.0 | 0.00 | 1.36 | 1.20 | 96 | 1017.7 |
| 20260502005203 | 54 | 351 | 4.0 | 12.0 | 0.00 | 1.36 | 1.20 | 96 | 1017.5 |
| 20260502004703 | 54 | 30 | 5.0 | 12.0 | 0.00 | 1.36 | 1.20 | 96 | 1017.4 |
| 20260502004427 | 54 | 34 | 5.0 | 12.0 | 0.00 | 1.36 | 1.20 | 96 | 1017.3 |
| 20260502003703 | 54 | 9 | 5.0 | 15.0 | 0.00 | 1.36 | 1.20 | 96 | 1017.3 |
| 20260502003203 | 54 | 32 | 6.0 | 15.0 | 0.00 | 1.36 | 1.20 | 95 | 1017.1 |
| 20260502002703 | 53 | 30 | 7.0 | 15.0 | 0.00 | 1.36 | 1.20 | 96 | 1017.1 |
| 20260502002202 | 53 | 12 | 7.0 | 15.0 | 0.00 | 1.36 | 1.20 | 95 | 1017.1 |
| 20260502001703 | 54 | 30 | 6.0 | 14.0 | 0.00 | 1.36 | 1.20 | 96 | 1017.0 |
| 20260502001203 | 53 | 50 | 6.0 | 14.0 | 0.00 | 1.36 | 1.20 | 96 | 1017.0 |
| 20260502000925 | 53 | 0 | 6.0 | 14.0 | 0.00 | 1.36 | 1.20 | 96 | 1017.0 |
| 20260502000204 | 53 | 351 | 7.0 | 13.0 | 0.00 | 1.36 | 1.20 | 96 | 1017.1 |
| 20260501235658 | 53 | 27 | 7.0 | 13.0 | 0.00 | 1.36 | 1.20 | 96 | 1016.9 |
| 20260501235151 | 53 | 62 | 6.0 | 15.0 | 0.00 | 1.36 | 1.20 | 96 | 1016.9 |
| 20260501234645 | 53 | 331 | 8.0 | 14.0 | 0.00 | 1.36 | 1.20 | 96 | 1016.9 |
| 20260501234146 | 53 | 72 | 8.0 | 14.0 | 0.00 | 1.36 | 1.20 | 96 | 1016.9 |
| 20260501233646 | 53 | 355 | 8.0 | 17.0 | 0.00 | 1.36 | 1.20 | 96 | 1016.9 |
| 20260501233145 | 53 | 22 | 7.0 | 17.0 | 0.00 | 1.36 | 1.20 | 96 | 1017.0 |
| 20260501232646 | 53 | 32 | 6.0 | 15.0 | 0.01 | 1.36 | 1.20 | 96 | 1016.9 |
| 20260501232146 | 53 | 27 | 7.0 | 16.0 | 0.01 | 1.36 | 1.20 | 96 | 1016.9 |
| 20260501231647 | 53 | 20 | 7.0 | 16.0 | 0.02 | 1.37 | 1.20 | 96 | 1016.9 |
| 20260501231146 | 53 | 34 | 7.0 | 16.0 | 0.02 | 1.37 | 1.20 | 96 | 1016.8 |
| 20260501230646 | 53 | 51 | 9.0 | 22.0 | 0.03 | 1.38 | 1.20 | 96 | 1016.3 |
| 20260501230147 | 53 | 9 | 9.0 | 22.0 | 0.04 | 1.39 | 1.20 | 97 | 1016.2 |
| 20260501225646 | 53 | 11 | 8.0 | 20.0 | 0.05 | 1.37 | 1.20 | 97 | 1016.2 |
| 20260501225145 | 54 | 22 | 9.0 | 18.0 | 0.06 | 1.39 | 1.20 | 97 | 1016.2 |
| 20260501224644 | 54 | 350 | 9.0 | 19.0 | 0.08 | 1.41 | 1.20 | 97 | 1016.2 |
| 20260501224144 | 54 | 19 | 9.0 | 19.0 | 0.09 | 1.45 | 1.20 | 97 | 1016.1 |
| 20260501223644 | 54 | 10 | 8.0 | 16.0 | 0.12 | 1.45 | 1.20 | 97 | 1016.2 |
| 20260501223145 | 54 | 22 | 7.0 | 16.0 | 0.13 | 1.45 | 1.20 | 97 | 1016.0 |
| 20260501222644 | 54 | 351 | 8.0 | 18.0 | 0.14 | 1.45 | 1.19 | 97 | 1016.3 |
| 20260501222138 | 54 | 11 | 10.0 | 18.0 | 0.14 | 1.45 | 1.19 | 97 | 1016.0 |
| 20260501221633 | 54 | 59 | 8.0 | 16.0 | 0.13 | 1.45 | 1.18 | 97 | 1016.0 |
| 20260501221135 | 55 | 9 | 8.0 | 16.0 | 0.12 | 1.45 | 1.17 | 97 | 1016.3 |
| 20260501220851 | 55 | 355 | 8.0 | 16.0 | 0.12 | 1.46 | 1.17 | 97 | 1016.3 |